sensor_id;sensor_type;location;lat;lon;timestamp;P1;durP1;ratioP1;P2;durP2;ratioP2
19032;SDS011;9649;51.042;13.804;2024-03-23T01:07:13;17.00;;;9.60;;
19032;SDS011;9649;51.042;13.804;2024-03-23T01:26:29;21.37;;;11.30;;
19032;SDS011;9649;51.042;13.804;2024-03-23T01:44:44;22.93;;;12.90;;
19032;SDS011;9649;51.042;13.804;2024-03-23T01:50:46;20.23;;;12.13;;
19032;SDS011;9649;51.042;13.804;2024-03-23T01:56:49;24.73;;;13.83;;
19032;SDS011;9649;51.042;13.804;2024-03-23T02:02:25;26.80;;;14.70;;
19032;SDS011;9649;51.042;13.804;2024-03-23T02:08:15;24.27;;;14.50;;
19032;SDS011;9649;51.042;13.804;2024-03-23T02:26:41;17.83;;;11.47;;
19032;SDS011;9649;51.042;13.804;2024-03-23T02:38:46;13.77;;;9.03;;
19032;SDS011;9649;51.042;13.804;2024-03-23T03:03:11;19.53;;;12.07;;
19032;SDS011;9649;51.042;13.804;2024-03-23T03:09:19;25.40;;;13.67;;
19032;SDS011;9649;51.042;13.804;2024-03-23T03:15:44;20.03;;;12.67;;
19032;SDS011;9649;51.042;13.804;2024-03-23T03:46:27;26.00;;;15.27;;
19032;SDS011;9649;51.042;13.804;2024-03-23T03:58:41;24.33;;;14.23;;
19032;SDS011;9649;51.042;13.804;2024-03-23T04:04:45;28.37;;;16.20;;
19032;SDS011;9649;51.042;13.804;2024-03-23T04:17:01;33.83;;;18.73;;
19032;SDS011;9649;51.042;13.804;2024-03-23T04:22:38;35.23;;;18.83;;
19032;SDS011;9649;51.042;13.804;2024-03-23T04:28:26;36.03;;;19.47;;
19032;SDS011;9649;51.042;13.804;2024-03-23T04:40:02;29.57;;;16.63;;
19032;SDS011;9649;51.042;13.804;2024-03-23T04:45:41;31.67;;;17.57;;
19032;SDS011;9649;51.042;13.804;2024-03-23T06:57:40;32.23;;;19.63;;
19032;SDS011;9649;51.042;13.804;2024-03-23T07:02:47;36.33;;;20.80;;
19032;SDS011;9649;51.042;13.804;2024-03-23T07:53:07;55.93;;;27.10;;
19032;SDS011;9649;51.042;13.804;2024-03-23T09:01:10;23.80;;;14.33;;
19032;SDS011;9649;51.042;13.804;2024-03-23T09:12:49;20.65;;;12.85;;
19032;SDS011;9649;51.042;13.804;2024-03-23T09:25:13;21.67;;;12.20;;
19032;SDS011;9649;51.042;13.804;2024-03-23T09:31:01;25.15;;;15.65;;
19032;SDS011;9649;51.042;13.804;2024-03-23T09:36:40;19.73;;;12.15;;
19032;SDS011;9649;51.042;13.804;2024-03-23T09:48:49;23.75;;;12.90;;
19032;SDS011;9649;51.042;13.804;2024-03-23T09:54:34;27.47;;;15.43;;
19032;SDS011;9649;51.042;13.804;2024-03-23T09:59:44;25.33;;;14.00;;
19032;SDS011;9649;51.042;13.804;2024-03-23T10:05:22;11.30;;;5.77;;
19032;SDS011;9649;51.042;13.804;2024-03-23T10:10:28;12.10;;;4.50;;
19032;SDS011;9649;51.042;13.804;2024-03-23T10:15:37;9.43;;;2.87;;
19032;SDS011;9649;51.042;13.804;2024-03-23T10:21:15;6.17;;;1.70;;
19032;SDS011;9649;51.042;13.804;2024-03-23T10:26:31;2.67;;;1.00;;
19032;SDS011;9649;51.042;13.804;2024-03-23T10:56:20;0.90;;;0.70;;
19032;SDS011;9649;51.042;13.804;2024-03-23T11:01:23;0.80;;;0.80;;
19032;SDS011;9649;51.042;13.804;2024-03-23T11:06:35;0.50;;;0.50;;
19032;SDS011;9649;51.042;13.804;2024-03-23T11:17:25;0.80;;;0.80;;
19032;SDS011;9649;51.042;13.804;2024-03-23T11:23:05;0.53;;;0.50;;
19032;SDS011;9649;51.042;13.804;2024-03-23T12:18:07;1.10;;;0.70;;
19032;SDS011;9649;51.042;13.804;2024-03-23T12:23:40;0.90;;;0.80;;
19032;SDS011;9649;51.042;13.804;2024-03-23T17:15:30;5.07;;;2.37;;
19032;SDS011;9649;51.042;13.804;2024-03-23T17:21:17;7.23;;;2.53;;
19032;SDS011;9649;51.042;13.804;2024-03-23T17:26:19;4.23;;;2.80;;
19032;SDS011;9649;51.042;13.804;2024-03-23T17:31:23;7.77;;;3.40;;
19032;SDS011;9649;51.042;13.804;2024-03-23T17:36:26;6.87;;;3.13;;
19032;SDS011;9649;51.042;13.804;2024-03-23T17:41:30;5.33;;;3.23;;
19032;SDS011;9649;51.042;13.804;2024-03-23T17:46:31;5.90;;;3.23;;
19032;SDS011;9649;51.042;13.804;2024-03-23T17:51:34;7.07;;;3.20;;
19032;SDS011;9649;51.042;13.804;2024-03-23T17:56:37;5.30;;;3.20;;
19032;SDS011;9649;51.042;13.804;2024-03-23T18:01:40;5.63;;;3.13;;
19032;SDS011;9649;51.042;13.804;2024-03-23T18:06:46;6.10;;;3.33;;
19032;SDS011;9649;51.042;13.804;2024-03-23T18:11:51;6.80;;;3.87;;
19032;SDS011;9649;51.042;13.804;2024-03-23T18:16:56;6.93;;;3.40;;
19032;SDS011;9649;51.042;13.804;2024-03-23T18:22:00;7.40;;;3.20;;
19032;SDS011;9649;51.042;13.804;2024-03-23T18:27:02;7.87;;;3.70;;
19032;SDS011;9649;51.042;13.804;2024-03-23T18:32:13;4.43;;;3.10;;
19032;SDS011;9649;51.042;13.804;2024-03-23T18:37:17;7.73;;;3.43;;
19032;SDS011;9649;51.042;13.804;2024-03-23T18:42:19;6.80;;;3.63;;
19032;SDS011;9649;51.042;13.804;2024-03-23T18:47:21;5.90;;;3.67;;
19032;SDS011;9649;51.042;13.804;2024-03-23T18:52:25;7.07;;;3.37;;
19032;SDS011;9649;51.042;13.804;2024-03-23T18:57:27;7.07;;;3.80;;
19032;SDS011;9649;51.042;13.804;2024-03-23T19:02:30;10.03;;;4.10;;
19032;SDS011;9649;51.042;13.804;2024-03-23T19:07:37;8.83;;;3.70;;
19032;SDS011;9649;51.042;13.804;2024-03-23T19:12:40;6.70;;;3.40;;
19032;SDS011;9649;51.042;13.804;2024-03-23T19:17:47;10.60;;;3.60;;
19032;SDS011;9649;51.042;13.804;2024-03-23T19:23:01;5.53;;;3.17;;
19032;SDS011;9649;51.042;13.804;2024-03-23T19:28:04;7.30;;;3.67;;
19032;SDS011;9649;51.042;13.804;2024-03-23T19:33:07;7.77;;;3.13;;
19032;SDS011;9649;51.042;13.804;2024-03-23T19:38:14;9.63;;;3.97;;
19032;SDS011;9649;51.042;13.804;2024-03-23T19:51:46;7.60;;;3.43;;
19032;SDS011;9649;51.042;13.804;2024-03-23T20:04:11;9.97;;;3.73;;
19032;SDS011;9649;51.042;13.804;2024-03-23T20:10:12;6.70;;;3.73;;
19032;SDS011;9649;51.042;13.804;2024-03-23T20:21:59;7.80;;;3.60;;
19032;SDS011;9649;51.042;13.804;2024-03-23T20:28:12;6.97;;;4.20;;
19032;SDS011;9649;51.042;13.804;2024-03-23T20:33:49;8.73;;;3.47;;
19032;SDS011;9649;51.042;13.804;2024-03-23T21:11:27;15.30;;;9.07;;
19032;SDS011;9649;51.042;13.804;2024-03-23T21:17:44;20.60;;;9.70;;
19032;SDS011;9649;51.042;13.804;2024-03-23T21:23:19;13.47;;;7.97;;
19032;SDS011;9649;51.042;13.804;2024-03-23T21:29:02;14.07;;;7.03;;
19032;SDS011;9649;51.042;13.804;2024-03-23T22:10:41;17.33;;;8.33;;
19032;SDS011;9649;51.042;13.804;2024-03-23T22:16:51;19.83;;;8.40;;
19032;SDS011;9649;51.042;13.804;2024-03-23T22:22:51;14.07;;;7.60;;
19032;SDS011;9649;51.042;13.804;2024-03-23T23:04:20;9.90;;;5.70;;
19032;SDS011;9649;51.042;13.804;2024-03-23T23:10:17;14.00;;;6.87;;
19032;SDS011;9649;51.042;13.804;2024-03-23T23:16:17;11.17;;;5.43;;
19032;SDS011;9649;51.042;13.804;2024-03-23T23:22:52;10.40;;;4.50;;
19032;SDS011;9649;51.042;13.804;2024-03-23T23:29:04;6.57;;;4.00;;
19032;SDS011;9649;51.042;13.804;2024-03-23T23:41:28;8.37;;;4.23;;
